createdAt,value
2018-06-08T00:00:48.217Z,21.42
2018-06-08T00:01:48.175Z,21.35
2018-06-08T00:02:48.129Z,21.33
2018-06-08T00:03:48.086Z,21.47
2018-06-08T00:04:48.068Z,21.42
2018-06-08T00:05:47.998Z,21.39
2018-06-08T00:06:47.955Z,21.35
2018-06-08T00:07:47.910Z,21.33
2018-06-08T00:08:47.868Z,21.35
2018-06-08T00:09:47.859Z,21.33
2018-06-08T00:10:47.780Z,21.33
2018-06-08T00:11:47.735Z,21.32
2018-06-08T00:12:47.692Z,21.32
2018-06-08T00:13:47.649Z,21.26
2018-06-08T00:14:47.606Z,21.29
2018-06-08T00:15:47.582Z,21.29
2018-06-08T00:16:47.516Z,21.27
2018-06-08T00:17:54.784Z,21.24
2018-06-08T00:18:47.426Z,21.12
2018-06-08T00:19:47.384Z,21.11
2018-06-08T00:20:47.360Z,21.15
2018-06-08T00:21:47.296Z,21.12
2018-06-08T00:22:47.252Z,21.17
2018-06-08T00:23:47.211Z,21.12
2018-06-08T00:24:47.165Z,21.10
2018-06-08T00:25:47.143Z,21.10
2018-06-08T00:26:47.076Z,21.03
2018-06-08T00:27:47.032Z,21.02
2018-06-08T00:28:46.989Z,21.00
2018-06-08T00:29:46.951Z,20.99
2018-06-08T00:30:46.919Z,21.06
2018-06-08T00:31:46.856Z,21.06
2018-06-08T00:32:46.815Z,21.03
2018-06-08T00:33:46.767Z,21.05
2018-06-08T00:34:46.722Z,21.08
2018-06-08T00:35:46.701Z,21.10
2018-06-08T00:36:46.632Z,20.99
2018-06-08T00:37:46.591Z,21.02
2018-06-08T00:38:46.547Z,21.03
2018-06-08T00:39:46.498Z,21.05
2018-06-08T00:40:46.508Z,21.02
2018-06-08T00:41:46.413Z,21.02
2018-06-08T00:42:46.369Z,20.95
2018-06-08T00:43:46.322Z,20.93
2018-06-08T00:44:46.288Z,20.92
2018-06-08T00:45:46.266Z,20.90
2018-06-08T00:46:46.193Z,20.90
2018-06-08T00:47:46.146Z,20.97
2018-06-08T00:48:46.104Z,20.95
2018-06-08T00:49:46.059Z,20.84
2018-06-08T00:50:46.039Z,20.80
2018-06-08T00:51:45.978Z,20.77
2018-06-08T00:52:45.930Z,20.84
2018-06-08T00:53:45.883Z,20.82
2018-06-08T00:54:45.838Z,20.80
2018-06-08T00:55:45.822Z,20.74
2018-06-08T00:56:45.750Z,20.74
2018-06-08T00:57:45.708Z,20.63
2018-06-08T00:58:45.661Z,20.77
2018-06-08T00:59:45.618Z,20.65
2018-06-08T01:00:45.608Z,20.60
2018-06-08T01:01:45.530Z,20.65
2018-06-08T01:02:45.487Z,20.67
2018-06-08T01:03:45.442Z,20.67
2018-06-08T01:04:45.398Z,20.71
2018-06-08T01:05:45.376Z,20.63
2018-06-08T01:06:45.307Z,20.55
2018-06-08T01:07:45.267Z,20.65
2018-06-08T01:08:45.221Z,20.62
2018-06-08T01:09:45.178Z,20.60
2018-06-08T01:10:45.160Z,20.53
2018-06-08T01:11:45.091Z,20.59
2018-06-08T01:12:45.042Z,20.60
2018-06-08T01:13:44.999Z,20.56
2018-06-08T01:14:44.955Z,20.56
2018-06-08T01:15:44.931Z,20.56
2018-06-08T01:16:44.866Z,20.55
2018-06-08T01:17:44.822Z,20.57
2018-06-08T01:18:44.777Z,20.56
2018-06-08T01:19:44.733Z,20.55
2018-06-08T01:20:44.711Z,20.59
2018-06-08T01:21:44.644Z,20.55
2018-06-08T01:22:44.628Z,20.62
2018-06-08T01:23:44.557Z,20.63
2018-06-08T01:24:44.513Z,20.60
2018-06-08T01:25:44.490Z,20.60
2018-06-08T01:26:51.636Z,20.56
2018-06-08T01:27:44.379Z,20.57
2018-06-08T01:28:44.341Z,20.55
2018-06-08T01:29:44.312Z,20.62
2018-06-08T01:30:44.280Z,20.60
2018-06-08T01:31:44.200Z,20.65
2018-06-08T01:32:44.156Z,20.48
2018-06-08T01:33:44.114Z,20.52
2018-06-08T01:34:44.068Z,20.48
2018-06-08T01:35:44.052Z,20.53
2018-06-08T01:36:43.979Z,20.52
2018-06-08T01:37:43.991Z,20.50
2018-06-08T01:38:43.893Z,20.39
2018-06-08T01:39:43.844Z,20.43
2018-06-08T01:40:43.802Z,20.44
2018-06-08T01:41:43.782Z,20.47
2018-06-08T01:42:43.713Z,20.41
2018-06-08T01:43:43.668Z,20.41
2018-06-08T01:44:43.626Z,20.29
2018-06-08T01:45:43.582Z,20.33
2018-06-08T01:46:43.558Z,20.29
2018-06-08T01:47:43.492Z,20.26
2018-06-08T01:48:43.448Z,20.28
2018-06-08T01:49:43.410Z,20.24
2018-06-08T01:50:43.354Z,20.26
2018-06-08T01:51:43.336Z,20.33
2018-06-08T01:52:43.267Z,20.28
2018-06-08T01:53:43.227Z,20.28
2018-06-08T01:54:43.177Z,20.36
2018-06-08T01:55:43.140Z,20.28
2018-06-08T01:56:43.113Z,20.19
2018-06-08T01:57:43.047Z,20.28
2018-06-08T01:58:43.003Z,20.24
2018-06-08T01:59:42.958Z,20.22
2018-06-08T02:00:42.912Z,20.17
2018-06-08T02:01:42.892Z,20.24
2018-06-08T02:02:42.823Z,20.18
2018-06-08T02:03:42.783Z,20.21
2018-06-08T02:04:42.734Z,20.14
2018-06-08T02:05:42.691Z,20.14
2018-06-08T02:06:42.670Z,20.03
2018-06-08T02:07:42.599Z,19.97
2018-06-08T02:08:42.557Z,20.01
2018-06-08T02:09:42.512Z,20.09
2018-06-08T02:10:42.468Z,20.03
2018-06-08T02:11:42.443Z,20.00
2018-06-08T02:12:42.381Z,20.03
2018-06-08T02:13:42.335Z,19.96
2018-06-08T02:14:42.290Z,20.06
2018-06-08T02:15:42.245Z,19.92
2018-06-08T02:16:42.226Z,19.99
2018-06-08T02:17:42.157Z,19.94
2018-06-08T02:18:42.109Z,19.99
2018-06-08T02:19:42.068Z,19.99
2018-06-08T02:20:42.022Z,20.01
2018-06-08T02:21:42.004Z,19.96
2018-06-08T02:22:41.932Z,19.99
2018-06-08T02:23:41.891Z,19.92
2018-06-08T02:24:41.841Z,19.99
2018-06-08T02:25:41.799Z,19.97
2018-06-08T02:26:41.776Z,19.97
2018-06-08T02:27:41.708Z,19.94
2018-06-08T02:28:41.663Z,19.89
2018-06-08T02:29:41.623Z,19.88
2018-06-08T02:30:41.574Z,19.86
2018-06-08T02:31:41.553Z,19.85
2018-06-08T02:32:41.489Z,19.86
2018-06-08T02:33:41.444Z,19.86
2018-06-08T02:34:41.396Z,19.88
2018-06-08T02:35:41.350Z,19.81
2018-06-08T02:36:41.330Z,19.78
2018-06-08T02:37:41.262Z,19.85
2018-06-08T02:38:41.217Z,19.79
2018-06-08T02:39:41.176Z,19.85
2018-06-08T02:40:41.128Z,19.76
2018-06-08T02:41:41.105Z,19.79
2018-06-08T02:42:41.043Z,19.82
2018-06-08T02:43:40.995Z,19.73
2018-06-08T02:44:40.949Z,19.76
2018-06-08T02:45:40.905Z,19.71
2018-06-08T02:46:40.880Z,19.81
2018-06-08T02:47:40.817Z,19.78
2018-06-08T02:48:40.772Z,19.70
2018-06-08T02:49:40.722Z,19.70
2018-06-08T02:50:40.680Z,19.70
2018-06-08T02:51:40.659Z,19.69
2018-06-08T02:52:40.596Z,19.63
2018-06-08T02:53:40.543Z,19.73
2018-06-08T02:54:40.501Z,19.70
2018-06-08T02:55:40.455Z,19.70
2018-06-08T02:56:40.437Z,19.69
2018-06-08T02:57:40.366Z,19.69
2018-06-08T02:58:40.330Z,19.64
2018-06-08T02:59:40.280Z,19.63
2018-06-08T03:00:40.231Z,19.64
2018-06-08T03:01:40.215Z,19.62
2018-06-08T03:02:40.141Z,19.63
2018-06-08T03:03:40.098Z,19.66
2018-06-08T03:04:40.055Z,19.63
2018-06-08T03:05:40.007Z,19.64
2018-06-08T03:06:39.992Z,19.66
2018-06-08T03:07:39.917Z,19.73
2018-06-08T03:08:39.880Z,19.64
2018-06-08T03:09:39.830Z,19.63
2018-06-08T03:10:39.780Z,19.59
2018-06-08T03:11:39.741Z,19.55
2018-06-08T03:12:39.714Z,19.60
2018-06-08T03:13:39.647Z,19.62
2018-06-08T03:14:39.606Z,19.48
2018-06-08T03:15:39.558Z,19.51
2018-06-08T03:16:39.512Z,19.54
2018-06-08T03:17:39.488Z,19.55
2018-06-08T03:18:39.425Z,19.59
2018-06-08T03:19:39.374Z,19.54
2018-06-08T03:20:39.332Z,19.51
2018-06-08T03:21:39.284Z,19.59
2018-06-08T03:22:39.265Z,19.48
2018-06-08T03:23:39.197Z,19.48
2018-06-08T03:24:39.155Z,19.52
2018-06-08T03:25:39.107Z,19.46
2018-06-08T03:26:39.061Z,19.46
2018-06-08T03:27:39.044Z,19.49
2018-06-08T03:28:38.982Z,19.49
2018-06-08T03:29:38.927Z,19.45
2018-06-08T03:30:38.882Z,19.45
2018-06-08T03:31:38.840Z,19.48
2018-06-08T03:32:38.817Z,19.55
2018-06-08T03:33:38.748Z,19.49
2018-06-08T03:34:38.704Z,19.52
2018-06-08T03:35:38.656Z,19.56
2018-06-08T03:36:38.617Z,19.60
2018-06-08T03:37:38.596Z,19.55
2018-06-08T03:38:38.523Z,19.56
2018-06-08T03:39:38.476Z,19.54
2018-06-08T03:40:38.434Z,19.55
2018-06-08T03:41:38.386Z,19.55
2018-06-08T03:42:38.366Z,19.55
2018-06-08T03:43:38.296Z,19.55
2018-06-08T03:44:38.253Z,19.49
2018-06-08T03:45:38.209Z,19.59
2018-06-08T03:46:38.182Z,19.67
2018-06-08T03:47:38.146Z,19.64
2018-06-08T03:48:38.070Z,19.63
2018-06-08T03:49:38.028Z,19.66
2018-06-08T03:50:37.986Z,19.69
2018-06-08T03:51:37.936Z,19.66
2018-06-08T03:52:37.919Z,19.66
2018-06-08T03:53:37.860Z,19.64
2018-06-08T03:54:37.802Z,19.70
2018-06-08T03:55:37.759Z,19.82
2018-06-08T03:56:37.712Z,19.84
2018-06-08T03:57:37.695Z,19.84
2018-06-08T03:58:37.621Z,19.85
2018-06-08T03:59:37.582Z,20.01
2018-06-08T04:00:37.535Z,19.92
2018-06-08T04:01:37.497Z,19.91
2018-06-08T04:02:37.470Z,19.91
2018-06-08T04:03:37.398Z,19.91
2018-06-08T04:04:37.358Z,19.97
2018-06-08T04:05:37.309Z,20.00
2018-06-08T04:06:37.267Z,20.00
2018-06-08T04:07:37.242Z,19.94
2018-06-08T04:08:37.179Z,20.00
2018-06-08T04:09:37.131Z,20.04
2018-06-08T04:10:37.093Z,20.09
2018-06-08T04:11:37.042Z,20.06
2018-06-08T04:12:37.045Z,20.11
2018-06-08T04:13:36.952Z,20.11
2018-06-08T04:14:36.911Z,20.03
2018-06-08T04:15:36.862Z,20.15
2018-06-08T04:16:36.823Z,20.19
2018-06-08T04:17:36.809Z,20.25
2018-06-08T04:18:36.735Z,20.25
2018-06-08T04:19:36.685Z,20.28
2018-06-08T04:20:36.643Z,20.29
2018-06-08T04:21:36.610Z,20.28
2018-06-08T04:22:36.571Z,20.31
2018-06-08T04:23:36.507Z,20.31
2018-06-08T04:24:36.467Z,20.39
2018-06-08T04:25:36.418Z,20.39
2018-06-08T04:26:36.375Z,20.44
2018-06-08T04:27:36.349Z,20.41
2018-06-08T04:28:36.284Z,20.57
2018-06-08T04:29:36.240Z,20.55
2018-06-08T04:30:36.196Z,20.55
2018-06-08T04:31:36.149Z,20.56
2018-06-08T04:32:36.128Z,20.63
2018-06-08T04:33:36.062Z,20.65
2018-06-08T04:34:36.018Z,20.75
2018-06-08T04:35:35.973Z,20.87
2018-06-08T04:36:35.932Z,20.92
2018-06-08T04:37:35.913Z,20.99
2018-06-08T04:38:35.841Z,21.03
2018-06-08T04:39:35.798Z,21.14
2018-06-08T04:40:35.755Z,21.14
2018-06-08T04:41:35.711Z,21.27
2018-06-08T04:42:35.697Z,21.33
2018-06-08T04:43:35.622Z,21.35
2018-06-08T04:44:35.576Z,21.42
2018-06-08T04:45:35.533Z,21.42
2018-06-08T04:46:35.491Z,21.32
2018-06-08T04:47:35.443Z,21.43
2018-06-08T04:48:35.423Z,21.37
2018-06-08T04:49:35.358Z,21.42
2018-06-08T04:50:35.315Z,21.45
2018-06-08T04:51:35.294Z,21.42
2018-06-08T04:52:35.231Z,21.51
2018-06-08T04:53:35.204Z,21.54
2018-06-08T04:54:35.142Z,21.57
2018-06-08T04:55:35.094Z,21.59
2018-06-08T04:56:35.056Z,21.65
2018-06-08T04:57:35.009Z,21.74
2018-06-08T04:58:34.985Z,21.77
2018-06-08T04:59:34.918Z,21.81
2018-06-08T05:00:34.881Z,21.84
2018-06-08T05:01:34.833Z,21.88
2018-06-08T05:02:34.793Z,21.98
2018-06-08T05:03:34.770Z,22.03
2018-06-08T05:04:34.709Z,22.01
2018-06-08T05:05:34.667Z,22.10
2018-06-08T05:06:34.620Z,22.10
2018-06-08T05:07:34.574Z,22.13
2018-06-08T05:08:34.553Z,22.08
2018-06-08T05:09:34.495Z,22.15
2018-06-08T05:10:34.457Z,22.20
2018-06-08T05:11:34.398Z,22.19
2018-06-08T05:12:34.358Z,22.22
2018-06-08T05:13:34.342Z,22.28
2018-06-08T05:14:34.267Z,22.33
2018-06-08T05:15:34.224Z,22.45
2018-06-08T05:16:34.219Z,22.45
2018-06-08T05:17:34.142Z,22.53
2018-06-08T05:18:34.121Z,22.48
2018-06-08T05:19:34.056Z,22.44
2018-06-08T05:20:34.013Z,22.60
2018-06-08T05:21:33.968Z,22.56
2018-06-08T05:22:33.924Z,22.63
2018-06-08T05:23:33.906Z,22.63
2018-06-08T05:24:33.841Z,22.60
2018-06-08T05:25:33.794Z,22.60
2018-06-08T05:26:33.755Z,22.58
2018-06-08T05:27:33.711Z,22.41
2018-06-08T05:28:33.690Z,22.43
2018-06-08T05:29:33.623Z,22.32
2018-06-08T05:30:33.585Z,22.26
2018-06-08T05:31:33.570Z,22.22
2018-06-08T05:32:33.497Z,22.28
2018-06-08T05:33:33.480Z,22.38
2018-06-08T05:34:33.411Z,22.38
2018-06-08T05:35:33.366Z,22.36
2018-06-08T05:36:33.327Z,22.28
2018-06-08T05:37:33.283Z,22.26
2018-06-08T05:38:33.267Z,22.23
2018-06-08T05:39:33.193Z,22.19
2018-06-08T05:40:33.157Z,22.17
2018-06-08T05:41:33.112Z,22.15
2018-06-08T05:42:33.080Z,22.14
2018-06-08T05:43:33.048Z,22.04
2018-06-08T05:44:32.986Z,22.04
2018-06-08T05:45:32.941Z,22.03
2018-06-08T05:46:32.895Z,22.04
2018-06-08T05:47:32.861Z,22.11
2018-06-08T05:48:32.875Z,22.15
2018-06-08T05:49:32.769Z,22.26
2018-06-08T05:50:32.724Z,22.26
2018-06-08T05:51:32.685Z,22.28
2018-06-08T05:52:32.642Z,22.20
2018-06-08T05:53:32.619Z,22.13
2018-06-08T05:54:32.554Z,22.25
2018-06-08T05:55:32.509Z,22.26
2018-06-08T05:56:32.470Z,22.17
2018-06-08T05:57:32.428Z,22.05
2018-06-08T05:58:32.405Z,22.08
2018-06-08T05:59:32.341Z,22.14
2018-06-08T06:00:32.299Z,22.26
2018-06-08T06:01:32.259Z,22.44
2018-06-08T06:02:32.211Z,22.47
2018-06-08T06:03:32.195Z,22.54
2018-06-08T06:04:32.125Z,22.62
2018-06-08T06:05:32.087Z,22.73
2018-06-08T06:06:32.037Z,22.83
2018-06-08T06:07:31.994Z,22.75
2018-06-08T06:08:31.980Z,22.90
2018-06-08T06:09:31.915Z,22.96
2018-06-08T06:10:31.869Z,23.07
2018-06-08T06:11:31.824Z,23.13
2018-06-08T06:12:31.783Z,23.25
2018-06-08T06:13:31.767Z,23.21
2018-06-08T06:14:31.699Z,23.18
2018-06-08T06:15:31.658Z,23.22
2018-06-08T06:16:31.612Z,23.10
2018-06-08T06:17:31.573Z,23.13
2018-06-08T06:18:31.566Z,23.05
2018-06-08T06:19:31.489Z,22.95
2018-06-08T06:20:31.442Z,22.88
2018-06-08T06:21:31.402Z,22.73
2018-06-08T06:22:31.362Z,22.69
2018-06-08T06:23:31.314Z,22.75
2018-06-08T06:24:31.300Z,22.68
2018-06-08T06:25:31.232Z,22.68
2018-06-08T06:26:31.209Z,22.68
2018-06-08T06:27:31.145Z,22.85
2018-06-08T06:28:31.105Z,22.93
2018-06-08T06:29:31.085Z,23.07
2018-06-08T06:30:31.024Z,23.18
2018-06-08T06:31:30.976Z,23.20
2018-06-08T06:32:30.936Z,23.21
2018-06-08T06:33:30.894Z,23.22
2018-06-08T06:34:30.872Z,23.31
2018-06-08T06:35:30.807Z,23.37
2018-06-08T06:36:30.767Z,23.43
2018-06-08T06:37:30.721Z,23.51
2018-06-08T06:38:30.685Z,23.52
2018-06-08T06:39:30.664Z,23.47
2018-06-08T06:40:30.599Z,23.40
2018-06-08T06:41:30.554Z,23.28
2018-06-08T06:42:30.516Z,23.43
2018-06-08T06:43:30.468Z,23.58
2018-06-08T06:44:30.454Z,23.66
2018-06-08T06:45:30.388Z,23.76
2018-06-08T06:46:30.345Z,23.88
2018-06-08T06:47:30.303Z,23.84
2018-06-08T06:48:30.289Z,24.18
2018-06-08T06:49:30.247Z,24.25
2018-06-08T06:50:30.182Z,24.39
2018-06-08T06:51:30.143Z,24.43
2018-06-08T06:52:30.097Z,24.58
2018-06-08T06:53:30.059Z,24.57
2018-06-08T06:54:30.034Z,24.57
2018-06-08T06:55:29.971Z,24.50
2018-06-08T06:56:29.929Z,24.25
2018-06-08T06:57:29.888Z,24.18
2018-06-08T06:58:29.846Z,24.18
2018-06-08T06:59:29.826Z,24.13
2018-06-08T07:00:29.767Z,24.11
2018-06-08T07:01:29.726Z,24.17
2018-06-08T07:02:29.680Z,24.28
2018-06-08T07:03:29.638Z,24.25
2018-06-08T07:04:29.659Z,24.37
2018-06-08T07:05:29.560Z,24.43
2018-06-08T07:06:29.517Z,24.39
2018-06-08T07:07:29.473Z,24.25
2018-06-08T07:08:29.437Z,24.21
2018-06-08T07:09:29.414Z,24.26
2018-06-08T07:10:29.349Z,24.26
2018-06-08T07:11:29.313Z,24.25
2018-06-08T07:12:29.267Z,24.26
2018-06-08T07:13:29.227Z,24.36
2018-06-08T07:14:29.214Z,24.40
2018-06-08T07:15:29.142Z,24.52
2018-06-08T07:16:29.108Z,24.60
2018-06-08T07:17:29.063Z,24.73
2018-06-08T07:18:29.021Z,24.83
2018-06-08T07:19:29.005Z,24.78
2018-06-08T07:20:28.943Z,24.83
2018-06-08T07:21:28.897Z,24.74
2018-06-08T07:22:28.859Z,24.51
2018-06-08T07:23:28.818Z,24.39
2018-06-08T07:24:28.796Z,24.45
2018-06-08T07:25:28.735Z,24.39
2018-06-08T07:26:28.691Z,24.40
2018-06-08T07:27:28.651Z,24.28
2018-06-08T07:28:28.615Z,24.29
2018-06-08T07:29:28.594Z,24.25
2018-06-08T07:30:28.532Z,24.26
2018-06-08T07:31:28.556Z,24.23
2018-06-08T07:32:28.446Z,24.33
2018-06-08T07:33:28.410Z,24.35
2018-06-08T07:34:28.405Z,24.47
2018-06-08T07:35:28.328Z,24.57
2018-06-08T07:36:28.281Z,24.58
2018-06-08T07:37:28.244Z,24.85
2018-06-08T07:38:28.201Z,24.98
2018-06-08T07:39:28.184Z,25.19
2018-06-08T07:40:28.117Z,25.32
2018-06-08T07:41:28.081Z,25.43
2018-06-08T07:42:28.038Z,25.51
2018-06-08T07:43:27.995Z,25.59
2018-06-08T07:44:27.995Z,25.75
2018-06-08T07:45:27.920Z,25.77
2018-06-08T07:46:27.870Z,25.99
2018-06-08T07:47:27.834Z,26.03
2018-06-08T07:48:27.794Z,26.07
2018-06-08T07:49:27.753Z,26.33
2018-06-08T07:50:27.732Z,26.40
2018-06-08T07:51:27.669Z,26.34
2018-06-08T07:52:27.632Z,26.52
2018-06-08T07:53:27.606Z,26.59
2018-06-08T07:54:27.552Z,26.56
2018-06-08T07:55:27.540Z,26.67
2018-06-08T07:56:27.470Z,26.70
2018-06-08T07:57:27.436Z,26.63
2018-06-08T07:58:27.391Z,26.25
2018-06-08T07:59:27.349Z,26.20
2018-06-08T08:00:27.332Z,26.18
2018-06-08T08:01:27.268Z,26.16
2018-06-08T08:02:27.233Z,26.12
2018-06-08T08:03:27.190Z,25.97
2018-06-08T08:04:27.148Z,26.10
2018-06-08T08:05:27.133Z,25.87
2018-06-08T08:06:27.074Z,25.88
2018-06-08T08:07:27.030Z,25.73
2018-06-08T08:08:26.995Z,25.74
2018-06-08T08:09:26.951Z,25.75
2018-06-08T08:10:26.936Z,25.67
2018-06-08T08:11:26.869Z,25.65
2018-06-08T08:12:26.831Z,25.69
2018-06-08T08:13:26.794Z,25.51
2018-06-08T08:14:26.756Z,25.51
2018-06-08T08:15:26.737Z,25.62
2018-06-08T08:16:26.673Z,25.63
2018-06-08T08:17:26.633Z,25.77
2018-06-08T08:18:26.590Z,25.77
2018-06-08T08:19:26.552Z,25.77
2018-06-08T08:20:26.537Z,25.56
2018-06-08T08:21:26.472Z,25.53
2018-06-08T08:22:26.433Z,25.70
2018-06-08T08:23:26.392Z,25.77
2018-06-08T08:24:26.352Z,25.87
2018-06-08T08:25:26.337Z,26.15
2018-06-08T08:26:26.274Z,26.28
2018-06-08T08:27:26.236Z,26.43
2018-06-08T08:28:26.193Z,26.65
2018-06-08T08:29:26.157Z,26.72
2018-06-08T08:30:26.139Z,26.60
2018-06-08T08:31:26.078Z,26.48
2018-06-08T08:32:26.041Z,26.28
2018-06-08T08:33:25.993Z,26.19
2018-06-08T08:34:25.956Z,26.18
2018-06-08T08:35:25.934Z,26.30
2018-06-08T08:36:25.875Z,26.26
2018-06-08T08:37:25.845Z,26.18
2018-06-08T08:38:25.797Z,26.26
2018-06-08T08:39:25.756Z,26.38
2018-06-08T08:40:25.747Z,26.22
2018-06-08T08:41:25.678Z,26.22
2018-06-08T08:42:25.636Z,26.15
2018-06-08T08:43:25.604Z,25.87
2018-06-08T08:44:25.558Z,25.77
2018-06-08T08:45:25.544Z,25.78
2018-06-08T08:46:25.479Z,25.77
2018-06-08T08:47:25.440Z,25.74
2018-06-08T08:48:25.402Z,25.90
2018-06-08T08:49:25.363Z,25.87
2018-06-08T08:50:25.347Z,26.07
2018-06-08T08:51:25.310Z,26.30
2018-06-08T08:52:25.241Z,26.34
2018-06-08T08:53:25.201Z,26.41
2018-06-08T08:54:25.162Z,26.45
2018-06-08T08:55:25.144Z,26.59
2018-06-08T08:56:25.081Z,26.68
2018-06-08T08:57:25.043Z,26.74
2018-06-08T08:58:25.005Z,26.87
2018-06-08T08:59:24.963Z,26.86
2018-06-08T09:00:24.948Z,26.78
2018-06-08T09:01:24.886Z,26.70
2018-06-08T09:02:24.849Z,26.63
2018-06-08T09:03:24.802Z,26.62
2018-06-08T09:04:24.765Z,26.50
2018-06-08T09:05:24.755Z,26.41
2018-06-08T09:06:24.687Z,26.44
2018-06-08T09:07:24.649Z,26.57
2018-06-08T09:08:24.613Z,26.65
2018-06-08T09:09:24.571Z,26.57
2018-06-08T09:10:24.556Z,26.53
2018-06-08T09:11:24.515Z,26.56
2018-06-08T09:12:24.467Z,26.52
2018-06-08T09:13:24.418Z,26.57
2018-06-08T09:14:24.373Z,26.53
2018-06-08T09:15:24.359Z,26.72
2018-06-08T09:16:24.300Z,26.80
2018-06-08T09:17:24.259Z,26.89
2018-06-08T09:18:24.220Z,26.99
2018-06-08T09:19:24.179Z,27.02
2018-06-08T09:20:24.174Z,27.08
2018-06-08T09:21:24.102Z,27.17
2018-06-08T09:22:24.064Z,27.33
2018-06-08T09:23:24.024Z,27.55
2018-06-08T09:24:23.984Z,27.62
2018-06-08T09:25:23.946Z,27.71
2018-06-08T09:26:23.930Z,27.79
2018-06-08T09:27:23.891Z,27.80
2018-06-08T09:28:23.832Z,27.85
2018-06-08T09:29:23.791Z,27.98
2018-06-08T09:30:23.752Z,28.05
2018-06-08T09:31:23.736Z,28.12
2018-06-08T09:32:23.676Z,28.04
2018-06-08T09:33:23.639Z,27.93
2018-06-08T09:34:23.960Z,27.90
2018-06-08T09:35:23.562Z,27.71
2018-06-08T09:36:23.546Z,27.70
2018-06-08T09:37:23.483Z,27.74
2018-06-08T09:38:23.444Z,27.74
2018-06-08T09:39:23.407Z,27.60
2018-06-08T09:40:23.371Z,27.65
2018-06-08T09:41:23.353Z,27.55
2018-06-08T09:42:23.292Z,27.60
2018-06-08T09:43:23.255Z,27.70
2018-06-08T09:44:23.250Z,27.71
2018-06-08T09:45:23.176Z,27.67
2018-06-08T09:46:23.194Z,27.77
2018-06-08T09:47:23.102Z,27.60
2018-06-08T09:48:23.067Z,27.52
2018-06-08T09:49:23.024Z,27.41
2018-06-08T09:50:22.984Z,27.34
2018-06-08T09:51:22.973Z,27.34
2018-06-08T09:52:22.913Z,27.33
2018-06-08T09:53:22.873Z,27.24
2018-06-08T09:54:22.833Z,27.17
2018-06-08T09:55:22.796Z,27.26
2018-06-08T09:56:22.778Z,27.30
2018-06-08T09:57:22.721Z,27.18
2018-06-08T09:58:22.680Z,27.23
2018-06-08T09:59:22.644Z,27.18
2018-06-08T10:00:22.603Z,27.22
2018-06-08T10:01:22.604Z,27.14
2018-06-08T10:02:22.529Z,27.32
2018-06-08T10:03:22.490Z,27.36
2018-06-08T10:04:22.451Z,27.33
2018-06-08T10:05:22.421Z,27.36
2018-06-08T10:06:22.405Z,27.36
2018-06-08T10:07:22.342Z,27.41
2018-06-08T10:08:22.300Z,27.51
2018-06-08T10:09:22.261Z,27.52
2018-06-08T10:10:22.223Z,27.52
2018-06-08T10:11:22.259Z,27.49
2018-06-08T10:12:22.144Z,27.65
2018-06-08T10:13:22.109Z,27.51
2018-06-08T10:14:22.073Z,27.49
2018-06-08T10:15:22.030Z,27.32
2018-06-08T10:16:22.022Z,27.37
2018-06-08T10:17:21.952Z,27.41
2018-06-08T10:18:21.913Z,27.44
2018-06-08T10:19:21.879Z,27.48
2018-06-08T10:20:21.837Z,27.55
2018-06-08T10:21:21.827Z,27.62
2018-06-08T10:22:21.765Z,27.71
2018-06-08T10:23:21.727Z,27.80
2018-06-08T10:24:21.687Z,27.80
2018-06-08T10:25:21.645Z,27.75
2018-06-08T10:26:21.629Z,27.67
2018-06-08T10:27:21.570Z,27.55
2018-06-08T10:28:21.541Z,27.58
2018-06-08T10:29:21.494Z,27.64
2018-06-08T10:30:21.458Z,27.55
2018-06-08T10:31:21.445Z,27.49
2018-06-08T10:32:21.381Z,27.34
2018-06-08T10:33:21.359Z,27.29
2018-06-08T10:34:21.306Z,27.15
2018-06-08T10:35:21.266Z,27.18
2018-06-08T10:36:21.251Z,27.15
2018-06-08T10:37:21.187Z,27.07
2018-06-08T10:38:21.153Z,27.17
2018-06-08T10:39:21.116Z,27.08
2018-06-08T10:40:21.073Z,27.07
2018-06-08T10:41:21.060Z,27.09
2018-06-08T10:42:21.000Z,27.09
2018-06-08T10:43:20.970Z,27.07
2018-06-08T10:44:20.919Z,27.04
2018-06-08T10:45:20.881Z,27.05
2018-06-08T10:46:20.865Z,27.00
2018-06-08T10:47:20.802Z,27.02
2018-06-08T10:48:20.766Z,27.08
2018-06-08T10:49:20.723Z,27.07
2018-06-08T10:50:20.688Z,27.05
2018-06-08T10:51:20.687Z,27.02
2018-06-08T10:52:20.617Z,27.09
2018-06-08T10:53:20.573Z,27.12
2018-06-08T10:54:20.537Z,27.00
2018-06-08T10:55:20.496Z,26.97
2018-06-08T10:56:20.457Z,26.90
2018-06-08T10:57:20.442Z,26.89
2018-06-08T10:58:20.377Z,26.89
2018-06-08T10:59:20.339Z,26.90
2018-06-08T11:00:20.298Z,26.82
2018-06-08T11:01:20.256Z,26.78
2018-06-08T11:02:20.241Z,26.68
2018-06-08T11:03:20.178Z,26.81
2018-06-08T11:04:20.140Z,26.81
2018-06-08T11:05:20.100Z,26.86
2018-06-08T11:06:20.061Z,26.85
2018-06-08T11:07:20.046Z,26.71
2018-06-08T11:08:19.984Z,26.71
2018-06-08T11:09:19.944Z,26.52
2018-06-08T11:10:19.910Z,26.45
2018-06-08T11:11:19.867Z,26.34
2018-06-08T11:12:19.854Z,26.20
2018-06-08T11:13:19.792Z,26.11
2018-06-08T11:14:21.207Z,26.04
2018-06-08T11:15:19.710Z,25.87
2018-06-08T11:16:19.670Z,25.85
2018-06-08T11:17:19.651Z,25.81
2018-06-08T11:18:19.590Z,25.78
2018-06-08T11:19:19.552Z,25.78
2018-06-08T11:20:19.511Z,25.70
2018-06-08T11:21:19.474Z,25.77
2018-06-08T11:22:19.456Z,25.77
2018-06-08T11:23:19.392Z,25.65
2018-06-08T11:24:19.347Z,25.62
2018-06-08T11:25:19.309Z,25.62
2018-06-08T11:26:19.271Z,25.53
2018-06-08T11:27:19.252Z,25.56
2018-06-08T11:28:19.189Z,25.55
2018-06-08T11:29:19.157Z,25.56
2018-06-08T11:30:19.106Z,25.45
2018-06-08T11:31:19.066Z,25.40
2018-06-08T11:32:19.046Z,24.88
2018-06-08T11:33:18.982Z,24.50
2018-06-08T11:34:18.941Z,23.73
2018-06-08T11:35:18.902Z,22.99
2018-06-08T11:36:18.863Z,22.43
2018-06-08T11:37:18.845Z,21.93
2018-06-08T11:38:18.778Z,21.35
2018-06-08T11:39:18.802Z,20.77
2018-06-08T11:40:18.692Z,20.48
2018-06-08T11:41:18.645Z,20.18
2018-06-08T11:42:18.671Z,20.07
2018-06-08T11:43:18.565Z,19.94
2018-06-08T11:44:18.521Z,20.03
2018-06-08T11:45:18.474Z,19.97
2018-06-08T11:46:18.431Z,20.07
2018-06-08T11:47:18.408Z,20.18
2018-06-08T11:48:18.344Z,20.21
2018-06-08T11:49:18.296Z,20.22
2018-06-08T11:50:18.254Z,20.25
2018-06-08T11:51:18.210Z,20.29
2018-06-08T11:52:18.263Z,20.18
2018-06-08T11:53:18.174Z,20.10
2018-06-08T11:54:18.080Z,20.06
2018-06-08T11:55:18.030Z,19.97
2018-06-08T11:56:17.982Z,20.03
2018-06-08T11:57:17.964Z,20.00
2018-06-08T11:58:17.890Z,19.97
2018-06-08T11:59:17.853Z,19.94
2018-06-08T12:00:17.809Z,19.81
2018-06-08T12:01:17.759Z,19.64
2018-06-08T12:02:17.738Z,19.51
2018-06-08T12:03:17.667Z,19.36
2018-06-08T12:04:24.700Z,19.29
2018-06-08T12:05:17.578Z,19.34
2018-06-08T12:06:17.533Z,19.09
2018-06-08T12:07:17.510Z,19.09
2018-06-08T12:08:17.444Z,19.11
2018-06-08T12:09:17.398Z,19.08
2018-06-08T12:10:17.350Z,19.11
2018-06-08T12:11:17.322Z,19.05
2018-06-08T12:12:17.285Z,18.98
2018-06-08T12:13:17.214Z,19.00
2018-06-08T12:14:17.162Z,18.99
2018-06-08T12:15:17.122Z,18.99
2018-06-08T12:16:17.074Z,18.92
2018-06-08T12:17:17.054Z,18.86
2018-06-08T12:18:16.983Z,18.83
2018-06-08T12:19:16.937Z,18.78
2018-06-08T12:20:16.895Z,18.67
2018-06-08T12:21:16.851Z,18.66
2018-06-08T12:22:16.829Z,18.48
2018-06-08T12:23:16.754Z,18.43
2018-06-08T12:24:16.712Z,18.49
2018-06-08T12:25:16.664Z,18.59
2018-06-08T12:26:16.620Z,18.62
2018-06-08T12:27:16.574Z,18.58
2018-06-08T12:28:16.556Z,18.52
2018-06-08T12:29:16.482Z,18.46
2018-06-08T12:30:16.436Z,18.56
2018-06-08T12:31:16.394Z,18.52
2018-06-08T12:32:16.342Z,18.53
2018-06-08T12:33:16.327Z,18.62
2018-06-08T12:34:16.253Z,18.63
2018-06-08T12:35:16.206Z,18.73
2018-06-08T12:36:16.164Z,18.68
2018-06-08T12:37:16.117Z,18.68
2018-06-08T12:38:16.091Z,18.77
2018-06-08T12:39:16.025Z,18.74
2018-06-08T12:40:15.978Z,18.80
2018-06-08T12:41:15.933Z,18.80
2018-06-08T12:42:15.888Z,18.98
2018-06-08T12:43:15.864Z,18.96
2018-06-08T12:44:15.810Z,19.04
2018-06-08T12:45:15.750Z,19.00
2018-06-08T12:46:15.708Z,19.15
2018-06-08T12:47:15.657Z,19.27
2018-06-08T12:48:15.634Z,19.30
2018-06-08T12:49:15.565Z,19.42
2018-06-08T12:50:15.517Z,19.42
2018-06-08T12:51:15.475Z,19.52
2018-06-08T12:52:15.439Z,19.52